sensor_id;sensor_type;location;lat;lon;timestamp;P1;durP1;ratioP1;P2;durP2;ratioP2
15297;SDS011;7750;48.796;9.026;2022-08-19T00:04:30;17.73;;;13.20;;
15297;SDS011;7750;48.796;9.026;2022-08-19T00:09:32;14.67;;;13.07;;
15297;SDS011;7750;48.796;9.026;2022-08-19T00:14:34;18.87;;;13.50;;
15297;SDS011;7750;48.796;9.026;2022-08-19T00:19:35;18.50;;;14.37;;
15297;SDS011;7750;48.796;9.026;2022-08-19T00:24:36;16.93;;;14.23;;
15297;SDS011;7750;48.796;9.026;2022-08-19T00:29:38;15.23;;;12.53;;
15297;SDS011;7750;48.796;9.026;2022-08-19T00:34:39;19.10;;;14.30;;
15297;SDS011;7750;48.796;9.026;2022-08-19T00:39:39;17.10;;;13.23;;
15297;SDS011;7750;48.796;9.026;2022-08-19T00:44:40;17.87;;;12.87;;
15297;SDS011;7750;48.796;9.026;2022-08-19T00:49:43;20.37;;;14.67;;
15297;SDS011;7750;48.796;9.026;2022-08-19T00:54:50;20.07;;;14.23;;
15297;SDS011;7750;48.796;9.026;2022-08-19T00:59:53;18.40;;;13.47;;
15297;SDS011;7750;48.796;9.026;2022-08-19T01:04:56;16.20;;;13.00;;
15297;SDS011;7750;48.796;9.026;2022-08-19T01:09:57;19.20;;;14.00;;
15297;SDS011;7750;48.796;9.026;2022-08-19T01:14:57;22.77;;;15.67;;
15297;SDS011;7750;48.796;9.026;2022-08-19T01:19:59;24.50;;;15.57;;
15297;SDS011;7750;48.796;9.026;2022-08-19T01:25:00;22.70;;;16.57;;
15297;SDS011;7750;48.796;9.026;2022-08-19T01:30:01;22.97;;;17.67;;
15297;SDS011;7750;48.796;9.026;2022-08-19T01:35:02;18.70;;;13.33;;
15297;SDS011;7750;48.796;9.026;2022-08-19T01:40:04;23.73;;;16.90;;
15297;SDS011;7750;48.796;9.026;2022-08-19T01:45:06;21.47;;;16.70;;
15297;SDS011;7750;48.796;9.026;2022-08-19T01:50:08;22.23;;;15.80;;
15297;SDS011;7750;48.796;9.026;2022-08-19T01:55:12;23.00;;;16.70;;
15297;SDS011;7750;48.796;9.026;2022-08-19T02:00:18;23.20;;;16.47;;
15297;SDS011;7750;48.796;9.026;2022-08-19T02:05:23;23.07;;;15.30;;
15297;SDS011;7750;48.796;9.026;2022-08-19T02:10:24;25.03;;;15.57;;
15297;SDS011;7750;48.796;9.026;2022-08-19T02:15:24;23.43;;;17.73;;
15297;SDS011;7750;48.796;9.026;2022-08-19T02:20:25;24.17;;;17.57;;
15297;SDS011;7750;48.796;9.026;2022-08-19T02:25:26;30.63;;;17.07;;
15297;SDS011;7750;48.796;9.026;2022-08-19T02:30:27;23.80;;;16.87;;
15297;SDS011;7750;48.796;9.026;2022-08-19T02:35:27;21.50;;;16.70;;
15297;SDS011;7750;48.796;9.026;2022-08-19T02:40:29;24.87;;;19.30;;
15297;SDS011;7750;48.796;9.026;2022-08-19T02:45:34;24.07;;;17.67;;
15297;SDS011;7750;48.796;9.026;2022-08-19T02:50:37;24.60;;;15.80;;
15297;SDS011;7750;48.796;9.026;2022-08-19T02:55:42;27.13;;;19.60;;
15297;SDS011;7750;48.796;9.026;2022-08-19T03:00:49;34.20;;;17.80;;
15297;SDS011;7750;48.796;9.026;2022-08-19T03:05:51;26.60;;;18.13;;
15297;SDS011;7750;48.796;9.026;2022-08-19T03:10:51;23.00;;;18.43;;
15297;SDS011;7750;48.796;9.026;2022-08-19T03:15:53;27.27;;;19.90;;
15297;SDS011;7750;48.796;9.026;2022-08-19T03:20:53;25.27;;;18.77;;
15297;SDS011;7750;48.796;9.026;2022-08-19T03:25:54;28.70;;;19.50;;
15297;SDS011;7750;48.796;9.026;2022-08-19T03:30:59;28.30;;;20.23;;
15297;SDS011;7750;48.796;9.026;2022-08-19T03:36:13;27.10;;;20.10;;
15297;SDS011;7750;48.796;9.026;2022-08-19T03:41:16;28.80;;;20.50;;
15297;SDS011;7750;48.796;9.026;2022-08-19T03:46:20;26.87;;;21.13;;
15297;SDS011;7750;48.796;9.026;2022-08-19T03:51:24;20.80;;;16.77;;
15297;SDS011;7750;48.796;9.026;2022-08-19T03:56:34;25.53;;;18.67;;
15297;SDS011;7750;48.796;9.026;2022-08-19T04:01:36;24.30;;;19.23;;
15297;SDS011;7750;48.796;9.026;2022-08-19T04:06:37;26.03;;;20.03;;
15297;SDS011;7750;48.796;9.026;2022-08-19T04:11:45;25.50;;;19.10;;
15297;SDS011;7750;48.796;9.026;2022-08-19T04:16:48;28.27;;;21.17;;
15297;SDS011;7750;48.796;9.026;2022-08-19T04:21:50;29.30;;;21.30;;
15297;SDS011;7750;48.796;9.026;2022-08-19T04:26:52;29.23;;;20.97;;
15297;SDS011;7750;48.796;9.026;2022-08-19T04:31:54;26.57;;;20.80;;
15297;SDS011;7750;48.796;9.026;2022-08-19T04:36:56;30.73;;;20.50;;
15297;SDS011;7750;48.796;9.026;2022-08-19T04:41:57;28.20;;;21.27;;
15297;SDS011;7750;48.796;9.026;2022-08-19T04:47:16;28.37;;;22.40;;
15297;SDS011;7750;48.796;9.026;2022-08-19T04:52:17;28.57;;;19.33;;
15297;SDS011;7750;48.796;9.026;2022-08-19T04:57:18;29.00;;;22.60;;
15297;SDS011;7750;48.796;9.026;2022-08-19T05:02:18;26.67;;;21.27;;
15297;SDS011;7750;48.796;9.026;2022-08-19T05:07:19;26.40;;;20.50;;
15297;SDS011;7750;48.796;9.026;2022-08-19T05:12:19;28.43;;;22.17;;
15297;SDS011;7750;48.796;9.026;2022-08-19T05:17:20;25.43;;;21.10;;
15297;SDS011;7750;48.796;9.026;2022-08-19T05:22:21;28.67;;;23.50;;
15297;SDS011;7750;48.796;9.026;2022-08-19T05:27:35;30.60;;;22.30;;
15297;SDS011;7750;48.796;9.026;2022-08-19T05:32:36;32.40;;;22.57;;
15297;SDS011;7750;48.796;9.026;2022-08-19T05:37:38;31.93;;;24.17;;
15297;SDS011;7750;48.796;9.026;2022-08-19T05:42:40;29.23;;;22.10;;
15297;SDS011;7750;48.796;9.026;2022-08-19T05:47:40;28.03;;;20.43;;
15297;SDS011;7750;48.796;9.026;2022-08-19T05:52:41;29.80;;;22.67;;
15297;SDS011;7750;48.796;9.026;2022-08-19T05:57:42;25.73;;;20.67;;
15297;SDS011;7750;48.796;9.026;2022-08-19T06:02:42;33.73;;;23.50;;
15297;SDS011;7750;48.796;9.026;2022-08-19T06:07:43;28.77;;;21.00;;
15297;SDS011;7750;48.796;9.026;2022-08-19T06:12:43;31.80;;;24.43;;
15297;SDS011;7750;48.796;9.026;2022-08-19T06:17:44;31.07;;;21.97;;
15297;SDS011;7750;48.796;9.026;2022-08-19T06:22:46;26.83;;;21.07;;
15297;SDS011;7750;48.796;9.026;2022-08-19T06:27:49;29.90;;;21.80;;
15297;SDS011;7750;48.796;9.026;2022-08-19T06:32:50;28.67;;;21.37;;
15297;SDS011;7750;48.796;9.026;2022-08-19T06:37:50;28.40;;;22.10;;
15297;SDS011;7750;48.796;9.026;2022-08-19T06:42:52;27.77;;;23.07;;
15297;SDS011;7750;48.796;9.026;2022-08-19T06:47:53;28.87;;;21.90;;
15297;SDS011;7750;48.796;9.026;2022-08-19T06:52:56;28.70;;;22.80;;
15297;SDS011;7750;48.796;9.026;2022-08-19T06:57:57;30.90;;;22.40;;
15297;SDS011;7750;48.796;9.026;2022-08-19T07:02:57;24.23;;;19.50;;
15297;SDS011;7750;48.796;9.026;2022-08-19T07:07:58;23.30;;;19.37;;
15297;SDS011;7750;48.796;9.026;2022-08-19T07:12:59;21.90;;;17.83;;
15297;SDS011;7750;48.796;9.026;2022-08-19T07:18:00;26.47;;;19.87;;
15297;SDS011;7750;48.796;9.026;2022-08-19T07:23:00;22.10;;;17.17;;
15297;SDS011;7750;48.796;9.026;2022-08-19T07:28:04;24.13;;;19.23;;
15297;SDS011;7750;48.796;9.026;2022-08-19T07:33:05;21.20;;;16.70;;
15297;SDS011;7750;48.796;9.026;2022-08-19T07:38:06;24.50;;;18.77;;
15297;SDS011;7750;48.796;9.026;2022-08-19T07:43:07;23.90;;;18.77;;
15297;SDS011;7750;48.796;9.026;2022-08-19T07:48:08;28.37;;;20.13;;
15297;SDS011;7750;48.796;9.026;2022-08-19T07:53:08;22.27;;;17.87;;
15297;SDS011;7750;48.796;9.026;2022-08-19T07:58:10;22.10;;;18.10;;
15297;SDS011;7750;48.796;9.026;2022-08-19T08:03:14;19.77;;;17.03;;
15297;SDS011;7750;48.796;9.026;2022-08-19T08:08:15;23.67;;;19.40;;
15297;SDS011;7750;48.796;9.026;2022-08-19T08:13:31;20.33;;;16.20;;
15297;SDS011;7750;48.796;9.026;2022-08-19T08:18:35;22.40;;;17.83;;
15297;SDS011;7750;48.796;9.026;2022-08-19T08:23:41;22.73;;;17.73;;
15297;SDS011;7750;48.796;9.026;2022-08-19T08:28:42;23.70;;;15.77;;
15297;SDS011;7750;48.796;9.026;2022-08-19T08:33:43;21.87;;;15.37;;
15297;SDS011;7750;48.796;9.026;2022-08-19T08:38:44;21.67;;;16.23;;
15297;SDS011;7750;48.796;9.026;2022-08-19T08:43:46;22.37;;;18.00;;
15297;SDS011;7750;48.796;9.026;2022-08-19T08:53:57;19.37;;;16.87;;
15297;SDS011;7750;48.796;9.026;2022-08-19T08:59:03;20.27;;;16.20;;
15297;SDS011;7750;48.796;9.026;2022-08-19T09:04:09;20.37;;;17.20;;
15297;SDS011;7750;48.796;9.026;2022-08-19T09:09:14;19.73;;;15.80;;
15297;SDS011;7750;48.796;9.026;2022-08-19T09:24:55;17.80;;;15.80;;
15297;SDS011;7750;48.796;9.026;2022-08-19T09:29:56;21.03;;;15.60;;
15297;SDS011;7750;48.796;9.026;2022-08-19T09:34:56;19.20;;;16.27;;
15297;SDS011;7750;48.796;9.026;2022-08-19T09:39:57;17.97;;;14.77;;
15297;SDS011;7750;48.796;9.026;2022-08-19T09:44:58;20.33;;;15.83;;
15297;SDS011;7750;48.796;9.026;2022-08-19T09:49:59;18.13;;;15.60;;
15297;SDS011;7750;48.796;9.026;2022-08-19T09:54:59;16.63;;;14.27;;
15297;SDS011;7750;48.796;9.026;2022-08-19T10:00:00;21.97;;;16.30;;
15297;SDS011;7750;48.796;9.026;2022-08-19T10:05:03;17.20;;;14.03;;
15297;SDS011;7750;48.796;9.026;2022-08-19T10:10:23;20.10;;;12.23;;
15297;SDS011;7750;48.796;9.026;2022-08-19T10:15:24;14.70;;;12.00;;
15297;SDS011;7750;48.796;9.026;2022-08-19T10:20:24;16.13;;;11.10;;
15297;SDS011;7750;48.796;9.026;2022-08-19T10:25:25;16.00;;;11.90;;
15297;SDS011;7750;48.796;9.026;2022-08-19T10:30:26;28.13;;;23.23;;
15297;SDS011;7750;48.796;9.026;2022-08-19T10:35:27;14.50;;;12.03;;
15297;SDS011;7750;48.796;9.026;2022-08-19T10:40:29;14.97;;;10.90;;
15297;SDS011;7750;48.796;9.026;2022-08-19T10:45:30;15.33;;;11.27;;
15297;SDS011;7750;48.796;9.026;2022-08-19T10:50:30;18.03;;;11.87;;
15297;SDS011;7750;48.796;9.026;2022-08-19T10:55:49;21.87;;;12.57;;
15297;SDS011;7750;48.796;9.026;2022-08-19T11:01:09;15.50;;;11.03;;
15297;SDS011;7750;48.796;9.026;2022-08-19T11:06:09;13.10;;;9.97;;
15297;SDS011;7750;48.796;9.026;2022-08-19T11:11:12;14.27;;;11.43;;
15297;SDS011;7750;48.796;9.026;2022-08-19T11:16:14;15.40;;;10.20;;
15297;SDS011;7750;48.796;9.026;2022-08-19T11:21:21;13.50;;;9.80;;
15297;SDS011;7750;48.796;9.026;2022-08-19T11:26:25;13.20;;;11.73;;
15297;SDS011;7750;48.796;9.026;2022-08-19T11:31:28;11.33;;;9.30;;
15297;SDS011;7750;48.796;9.026;2022-08-19T11:36:33;11.30;;;9.67;;
15297;SDS011;7750;48.796;9.026;2022-08-19T11:41:37;12.13;;;8.60;;
15297;SDS011;7750;48.796;9.026;2022-08-19T11:46:37;15.33;;;9.20;;
15297;SDS011;7750;48.796;9.026;2022-08-19T11:51:39;11.97;;;8.93;;
15297;SDS011;7750;48.796;9.026;2022-08-19T11:56:42;10.00;;;7.60;;
15297;SDS011;7750;48.796;9.026;2022-08-19T12:01:43;9.67;;;7.17;;
15297;SDS011;7750;48.796;9.026;2022-08-19T12:06:44;9.57;;;7.87;;
15297;SDS011;7750;48.796;9.026;2022-08-19T12:11:45;11.33;;;7.40;;
15297;SDS011;7750;48.796;9.026;2022-08-19T12:16:45;8.77;;;7.27;;
15297;SDS011;7750;48.796;9.026;2022-08-19T12:21:46;7.47;;;6.50;;
15297;SDS011;7750;48.796;9.026;2022-08-19T12:26:47;8.30;;;7.07;;
15297;SDS011;7750;48.796;9.026;2022-08-19T12:31:48;12.30;;;7.70;;
15297;SDS011;7750;48.796;9.026;2022-08-19T12:36:49;8.73;;;6.83;;
15297;SDS011;7750;48.796;9.026;2022-08-19T12:41:50;7.80;;;5.67;;
15297;SDS011;7750;48.796;9.026;2022-08-19T12:46:51;8.30;;;6.90;;
15297;SDS011;7750;48.796;9.026;2022-08-19T12:51:51;11.80;;;7.20;;
15297;SDS011;7750;48.796;9.026;2022-08-19T12:56:52;8.27;;;7.40;;
15297;SDS011;7750;48.796;9.026;2022-08-19T13:01:53;9.30;;;7.13;;
15297;SDS011;7750;48.796;9.026;2022-08-19T13:06:54;9.17;;;7.83;;
15297;SDS011;7750;48.796;9.026;2022-08-19T13:11:55;15.03;;;12.20;;
15297;SDS011;7750;48.796;9.026;2022-08-19T13:16:56;8.07;;;6.70;;
15297;SDS011;7750;48.796;9.026;2022-08-19T13:21:57;10.20;;;7.70;;
15297;SDS011;7750;48.796;9.026;2022-08-19T13:26:59;11.23;;;7.67;;
15297;SDS011;7750;48.796;9.026;2022-08-19T13:32:00;7.40;;;6.60;;
15297;SDS011;7750;48.796;9.026;2022-08-19T13:37:19;10.43;;;8.03;;
15297;SDS011;7750;48.796;9.026;2022-08-19T13:42:40;8.20;;;7.30;;
15297;SDS011;7750;48.796;9.026;2022-08-19T13:47:45;8.83;;;7.93;;
15297;SDS011;7750;48.796;9.026;2022-08-19T13:52:48;13.47;;;7.47;;
15297;SDS011;7750;48.796;9.026;2022-08-19T13:57:50;7.80;;;6.60;;
15297;SDS011;7750;48.796;9.026;2022-08-19T14:02:55;9.03;;;7.17;;
15297;SDS011;7750;48.796;9.026;2022-08-19T14:07:57;23.50;;;8.17;;
15297;SDS011;7750;48.796;9.026;2022-08-19T14:13:00;8.70;;;7.50;;
15297;SDS011;7750;48.796;9.026;2022-08-19T14:18:03;10.50;;;8.43;;
15297;SDS011;7750;48.796;9.026;2022-08-19T14:23:03;8.97;;;7.27;;
15297;SDS011;7750;48.796;9.026;2022-08-19T14:28:07;8.67;;;7.77;;
15297;SDS011;7750;48.796;9.026;2022-08-19T14:33:08;9.23;;;8.33;;
15297;SDS011;7750;48.796;9.026;2022-08-19T14:38:14;9.53;;;7.27;;
15297;SDS011;7750;48.796;9.026;2022-08-19T14:43:16;10.10;;;8.70;;
15297;SDS011;7750;48.796;9.026;2022-08-19T14:48:17;9.80;;;8.17;;
15297;SDS011;7750;48.796;9.026;2022-08-19T14:53:18;8.57;;;7.63;;
15297;SDS011;7750;48.796;9.026;2022-08-19T14:58:19;11.70;;;8.90;;
15297;SDS011;7750;48.796;9.026;2022-08-19T15:03:20;9.17;;;7.43;;
15297;SDS011;7750;48.796;9.026;2022-08-19T15:08:20;8.80;;;7.90;;
15297;SDS011;7750;48.796;9.026;2022-08-19T15:13:22;15.00;;;9.27;;
15297;SDS011;7750;48.796;9.026;2022-08-19T15:18:24;8.93;;;8.03;;
15297;SDS011;7750;48.796;9.026;2022-08-19T15:23:25;9.03;;;7.90;;
15297;SDS011;7750;48.796;9.026;2022-08-19T15:28:25;12.83;;;8.37;;
15297;SDS011;7750;48.796;9.026;2022-08-19T15:33:26;8.30;;;7.50;;
15297;SDS011;7750;48.796;9.026;2022-08-19T15:38:27;9.23;;;7.07;;
15297;SDS011;7750;48.796;9.026;2022-08-19T15:43:28;10.40;;;7.30;;
15297;SDS011;7750;48.796;9.026;2022-08-19T15:48:28;7.30;;;6.57;;
15297;SDS011;7750;48.796;9.026;2022-08-19T15:53:29;8.53;;;6.40;;
15297;SDS011;7750;48.796;9.026;2022-08-19T15:58:30;7.20;;;6.27;;
15297;SDS011;7750;48.796;9.026;2022-08-19T16:03:49;6.97;;;6.20;;
15297;SDS011;7750;48.796;9.026;2022-08-19T16:09:09;7.70;;;6.13;;
15297;SDS011;7750;48.796;9.026;2022-08-19T16:14:10;7.27;;;6.40;;
15297;SDS011;7750;48.796;9.026;2022-08-19T16:19:11;9.20;;;5.60;;
15297;SDS011;7750;48.796;9.026;2022-08-19T16:24:15;9.30;;;6.30;;
15297;SDS011;7750;48.796;9.026;2022-08-19T16:29:17;7.40;;;6.13;;
15297;SDS011;7750;48.796;9.026;2022-08-19T16:34:19;13.20;;;7.57;;
15297;SDS011;7750;48.796;9.026;2022-08-19T16:39:20;10.83;;;6.03;;
15297;SDS011;7750;48.796;9.026;2022-08-19T16:44:22;8.53;;;5.90;;
15297;SDS011;7750;48.796;9.026;2022-08-19T16:49:23;11.00;;;6.07;;
15297;SDS011;7750;48.796;9.026;2022-08-19T16:54:25;9.20;;;6.10;;
15297;SDS011;7750;48.796;9.026;2022-08-19T16:59:25;7.07;;;6.00;;
15297;SDS011;7750;48.796;9.026;2022-08-19T17:04:26;12.23;;;7.97;;
15297;SDS011;7750;48.796;9.026;2022-08-19T17:09:28;8.90;;;7.60;;
15297;SDS011;7750;48.796;9.026;2022-08-19T17:14:29;9.50;;;8.50;;
15297;SDS011;7750;48.796;9.026;2022-08-19T17:19:29;10.10;;;7.67;;
15297;SDS011;7750;48.796;9.026;2022-08-19T17:24:30;9.23;;;7.50;;
15297;SDS011;7750;48.796;9.026;2022-08-19T17:29:31;9.73;;;7.60;;
15297;SDS011;7750;48.796;9.026;2022-08-19T17:34:32;8.10;;;7.03;;
15297;SDS011;7750;48.796;9.026;2022-08-19T17:39:33;8.00;;;6.80;;
15297;SDS011;7750;48.796;9.026;2022-08-19T17:44:34;8.80;;;6.87;;
15297;SDS011;7750;48.796;9.026;2022-08-19T17:49:35;8.63;;;6.70;;
15297;SDS011;7750;48.796;9.026;2022-08-19T17:54:36;8.93;;;6.63;;
15297;SDS011;7750;48.796;9.026;2022-08-19T17:59:37;10.47;;;7.57;;
15297;SDS011;7750;48.796;9.026;2022-08-19T18:04:38;9.77;;;7.20;;
15297;SDS011;7750;48.796;9.026;2022-08-19T18:09:39;10.10;;;6.97;;
15297;SDS011;7750;48.796;9.026;2022-08-19T18:14:40;14.80;;;8.00;;
15297;SDS011;7750;48.796;9.026;2022-08-19T18:19:41;9.20;;;7.17;;
15297;SDS011;7750;48.796;9.026;2022-08-19T18:24:42;9.63;;;6.83;;
15297;SDS011;7750;48.796;9.026;2022-08-19T18:29:43;11.47;;;8.20;;
15297;SDS011;7750;48.796;9.026;2022-08-19T18:34:44;9.40;;;7.60;;
15297;SDS011;7750;48.796;9.026;2022-08-19T18:39:45;8.53;;;7.07;;
15297;SDS011;7750;48.796;9.026;2022-08-19T18:45:04;12.13;;;8.23;;
15297;SDS011;7750;48.796;9.026;2022-08-19T18:50:24;9.07;;;7.37;;
15297;SDS011;7750;48.796;9.026;2022-08-19T18:55:24;9.17;;;7.60;;
15297;SDS011;7750;48.796;9.026;2022-08-19T19:00:28;9.97;;;8.10;;
15297;SDS011;7750;48.796;9.026;2022-08-19T19:05:30;9.13;;;8.23;;
15297;SDS011;7750;48.796;9.026;2022-08-19T19:10:31;9.70;;;8.70;;
15297;SDS011;7750;48.796;9.026;2022-08-19T19:15:34;11.00;;;8.77;;
15297;SDS011;7750;48.796;9.026;2022-08-19T19:20:35;8.97;;;8.07;;
15297;SDS011;7750;48.796;9.026;2022-08-19T19:25:36;11.07;;;8.13;;
15297;SDS011;7750;48.796;9.026;2022-08-19T19:30:38;13.17;;;8.67;;
15297;SDS011;7750;48.796;9.026;2022-08-19T19:35:38;9.07;;;7.70;;
15297;SDS011;7750;48.796;9.026;2022-08-19T19:40:39;10.30;;;7.60;;
15297;SDS011;7750;48.796;9.026;2022-08-19T19:45:40;14.50;;;7.13;;
15297;SDS011;7750;48.796;9.026;2022-08-19T19:50:42;14.70;;;7.03;;
15297;SDS011;7750;48.796;9.026;2022-08-19T19:55:43;18.93;;;6.80;;
15297;SDS011;7750;48.796;9.026;2022-08-19T20:00:43;14.27;;;6.67;;
15297;SDS011;7750;48.796;9.026;2022-08-19T20:05:45;8.97;;;6.13;;
15297;SDS011;7750;48.796;9.026;2022-08-19T20:10:46;8.30;;;5.87;;
15297;SDS011;7750;48.796;9.026;2022-08-19T20:15:47;7.20;;;5.67;;
15297;SDS011;7750;48.796;9.026;2022-08-19T20:20:47;6.43;;;5.70;;
15297;SDS011;7750;48.796;9.026;2022-08-19T20:25:49;7.53;;;5.40;;
15297;SDS011;7750;48.796;9.026;2022-08-19T20:30:50;7.70;;;5.30;;
15297;SDS011;7750;48.796;9.026;2022-08-19T20:35:50;8.00;;;5.20;;
15297;SDS011;7750;48.796;9.026;2022-08-19T20:40:51;5.87;;;4.83;;
15297;SDS011;7750;48.796;9.026;2022-08-19T20:45:52;6.20;;;4.70;;
15297;SDS011;7750;48.796;9.026;2022-08-19T20:50:53;5.80;;;4.40;;
15297;SDS011;7750;48.796;9.026;2022-08-19T20:55:57;6.03;;;4.40;;
15297;SDS011;7750;48.796;9.026;2022-08-19T21:00:59;5.10;;;3.67;;
15297;SDS011;7750;48.796;9.026;2022-08-19T21:06:02;5.70;;;3.83;;
15297;SDS011;7750;48.796;9.026;2022-08-19T21:11:03;6.50;;;4.00;;
15297;SDS011;7750;48.796;9.026;2022-08-19T21:16:05;5.97;;;3.63;;
15297;SDS011;7750;48.796;9.026;2022-08-19T21:21:06;4.10;;;3.03;;
15297;SDS011;7750;48.796;9.026;2022-08-19T21:26:07;6.10;;;3.53;;
15297;SDS011;7750;48.796;9.026;2022-08-19T21:31:08;6.60;;;3.30;;
15297;SDS011;7750;48.796;9.026;2022-08-19T21:36:13;3.30;;;2.40;;
15297;SDS011;7750;48.796;9.026;2022-08-19T21:41:14;3.30;;;2.00;;
15297;SDS011;7750;48.796;9.026;2022-08-19T21:46:15;3.33;;;2.07;;
15297;SDS011;7750;48.796;9.026;2022-08-19T21:51:15;6.50;;;2.90;;
15297;SDS011;7750;48.796;9.026;2022-08-19T21:56:16;7.97;;;2.67;;
15297;SDS011;7750;48.796;9.026;2022-08-19T22:01:17;3.70;;;2.07;;
15297;SDS011;7750;48.796;9.026;2022-08-19T22:06:17;3.63;;;2.27;;
15297;SDS011;7750;48.796;9.026;2022-08-19T22:11:18;2.37;;;1.60;;
15297;SDS011;7750;48.796;9.026;2022-08-19T22:16:19;3.00;;;2.00;;
15297;SDS011;7750;48.796;9.026;2022-08-19T22:21:20;3.43;;;2.10;;
15297;SDS011;7750;48.796;9.026;2022-08-19T22:26:21;3.43;;;2.20;;
15297;SDS011;7750;48.796;9.026;2022-08-19T22:31:22;9.53;;;2.27;;
15297;SDS011;7750;48.796;9.026;2022-08-19T22:36:22;2.83;;;1.60;;
15297;SDS011;7750;48.796;9.026;2022-08-19T22:41:23;4.90;;;2.20;;
15297;SDS011;7750;48.796;9.026;2022-08-19T22:46:24;3.00;;;1.90;;
15297;SDS011;7750;48.796;9.026;2022-08-19T22:51:25;2.50;;;1.60;;
15297;SDS011;7750;48.796;9.026;2022-08-19T22:56:44;2.73;;;1.67;;
15297;SDS011;7750;48.796;9.026;2022-08-19T23:01:44;6.23;;;2.47;;
15297;SDS011;7750;48.796;9.026;2022-08-19T23:06:45;3.83;;;2.50;;
15297;SDS011;7750;48.796;9.026;2022-08-19T23:11:46;4.10;;;2.00;;
15297;SDS011;7750;48.796;9.026;2022-08-19T23:16:47;3.60;;;2.10;;
15297;SDS011;7750;48.796;9.026;2022-08-19T23:21:48;2.73;;;1.90;;
15297;SDS011;7750;48.796;9.026;2022-08-19T23:26:49;3.50;;;1.63;;
15297;SDS011;7750;48.796;9.026;2022-08-19T23:32:08;2.53;;;1.60;;
15297;SDS011;7750;48.796;9.026;2022-08-19T23:37:09;2.60;;;1.60;;
15297;SDS011;7750;48.796;9.026;2022-08-19T23:42:10;2.70;;;1.50;;
15297;SDS011;7750;48.796;9.026;2022-08-19T23:47:11;2.90;;;1.80;;
15297;SDS011;7750;48.796;9.026;2022-08-19T23:52:12;2.63;;;1.60;;
15297;SDS011;7750;48.796;9.026;2022-08-19T23:57:13;2.20;;;1.40;;
